Time;durP1;ratioP1;P1;durP2;ratioP2;P2;SDS_P1;SDS_P2;PMS_P1;PMS_P2;Temp;Humidity;BMP_temperature;BMP_pressure;BME280_temperature;BME280_humidity;BME280_pressure;Samples;Min_cycle;Max_cycle;Signal;HPM_P1;HPM_P2
2022/06/27 00:00:11;;;;;;;4.95;3.30;;;22.40;83.40;;;;;;5028428;28;20196;-76
2022/06/27 00:02:39;;;;;;;7.85;3.30;;;22.30;83.40;;;;;;5025396;28;20192;-75
2022/06/27 00:05:10;;;;;;;4.85;3.00;;;22.30;83.40;;;;;;5035003;28;20209;-76
2022/06/27 00:07:39;;;;;;;7.50;2.97;;;22.40;83.50;;;;;;5038189;28;21104;-76
2022/06/27 00:10:09;;;;;;;6.10;3.20;;;22.40;83.70;;;;;;5039175;28;20194;-74
2022/06/27 00:12:39;;;;;;;5.03;3.10;;;22.40;83.80;;;;;;5041286;28;21182;-74
2022/06/27 00:15:10;;;;;;;6.32;3.60;;;22.30;83.80;;;;;;5038819;28;20977;-74
2022/06/27 00:17:39;;;;;;;7.60;3.65;;;22.30;83.80;;;;;;5038268;28;20195;-74
2022/06/27 00:20:09;;;;;;;6.28;3.22;;;22.20;83.80;;;;;;5040565;28;20302;-75
2022/06/27 00:22:38;;;;;;;6.35;3.47;;;22.20;83.90;;;;;;5038458;28;20191;-74
2022/06/27 00:25:09;;;;;;;5.78;3.05;;;22.20;84.00;;;;;;5032751;28;20875;-74
2022/06/27 00:27:39;;;;;;;4.88;2.95;;;22.20;84.10;;;;;;5043683;28;20198;-76
2022/06/27 00:30:08;;;;;;;7.65;2.72;;;22.30;84.10;;;;;;5046221;28;20206;-76
2022/06/27 00:32:36;;;;;;;4.20;2.63;;;22.20;84.10;;;;;;5035642;28;20194;-76
2022/06/27 00:35:07;;;;;;;6.00;2.80;;;22.20;84.10;;;;;;5041626;28;20675;-76
2022/06/27 00:37:35;;;;;;;8.60;2.92;;;22.20;84.10;;;;;;5034281;28;20994;-75
2022/06/27 00:40:05;;;;;;;8.52;2.65;;;22.20;84.10;;;;;;5035912;28;20250;-76
2022/06/27 00:42:34;;;;;;;5.75;2.72;;;22.20;84.10;;;;;;5031899;28;20843;-75
2022/06/27 00:45:07;;;;;;;5.43;2.30;;;22.20;84.20;;;;;;5035872;28;20199;-75
2022/06/27 00:47:35;;;;;;;5.90;2.70;;;22.20;84.10;;;;;;5039960;28;20395;-75
2022/06/27 00:50:04;;;;;;;5.80;2.55;;;22.20;84.00;;;;;;5044230;28;20186;-75
2022/06/27 00:52:33;;;;;;;5.00;2.67;;;22.20;84.00;;;;;;5035541;28;20195;-75
2022/06/27 00:55:02;;;;;;;4.43;3.10;;;22.20;84.00;;;;;;5039547;28;20275;-75
2022/06/27 00:57:31;;;;;;;7.38;2.75;;;22.20;83.90;;;;;;5033892;28;20200;-75
2022/06/27 00:59:59;;;;;;;6.32;2.88;;;22.20;83.80;;;;;;5028856;28;20215;-75
2022/06/27 01:02:29;;;;;;;6.20;2.85;;;22.20;83.80;;;;;;5039570;28;20187;-75
2022/06/27 01:04:58;;;;;;;5.28;2.88;;;22.20;83.80;;;;;;5036906;28;20278;-75
2022/06/27 01:07:26;;;;;;;6.32;2.95;;;22.20;83.80;;;;;;5037799;28;20195;-74
2022/06/27 01:09:55;;;;;;;5.53;2.33;;;22.10;83.80;;;;;;5039108;28;20191;-74
2022/06/27 01:12:24;;;;;;;4.22;2.83;;;22.10;83.90;;;;;;5030861;28;20199;-74
2022/06/27 01:14:52;;;;;;;4.30;2.58;;;22.10;84.00;;;;;;5035007;28;20218;-74
2022/06/27 01:17:21;;;;;;;4.90;2.50;;;22.10;84.10;;;;;;5035583;28;20202;-75
2022/06/27 01:19:50;;;;;;;4.38;2.50;;;22.10;84.10;;;;;;5033928;28;20219;-74
2022/06/27 01:22:20;;;;;;;6.40;2.78;;;22.10;84.10;;;;;;5032629;28;20841;-75
2022/06/27 01:24:49;;;;;;;4.72;2.85;;;22.00;84.00;;;;;;5035126;28;20285;-75
2022/06/27 01:27:17;;;;;;;4.53;3.17;;;22.00;84.00;;;;;;5030523;28;21155;-75
2022/06/27 01:29:46;;;;;;;4.57;2.83;;;22.00;84.00;;;;;;5038130;28;20208;-75
2022/06/27 01:32:14;;;;;;;5.07;2.80;;;22.00;83.90;;;;;;5028252;28;20446;-74
2022/06/27 01:34:43;;;;;;;7.57;3.03;;;22.00;84.40;;;;;;5037496;28;20195;-75
2022/06/27 01:37:11;;;;;;;3.42;2.13;;;22.00;84.30;;;;;;5035393;28;20620;-75
2022/06/27 01:39:41;;;;;;;5.20;2.63;;;22.00;84.20;;;;;;5034561;28;20195;-75
2022/06/27 01:42:09;;;;;;;9.55;3.97;;;22.00;84.10;;;;;;5031690;28;20192;-74
2022/06/27 01:44:38;;;;;;;7.73;2.60;;;21.90;84.10;;;;;;5035698;28;20203;-75
2022/06/27 01:47:08;;;;;;;4.72;2.60;;;21.90;84.00;;;;;;5029413;28;20198;-74
2022/06/27 01:49:38;;;;;;;5.30;2.55;;;21.90;83.90;;;;;;5036423;28;20247;-74
2022/06/27 01:52:08;;;;;;;7.38;3.35;;;21.90;83.80;;;;;;5041367;28;20191;-75
2022/06/27 01:54:37;;;;;;;3.75;2.55;;;21.90;83.80;;;;;;5040207;28;20195;-74
2022/06/27 01:57:08;;;;;;;4.07;2.50;;;21.80;83.80;;;;;;5039590;28;20219;-75
2022/06/27 01:59:37;;;;;;;4.07;2.63;;;21.80;84.00;;;;;;5039860;28;20196;-74
2022/06/27 02:02:07;;;;;;;6.10;2.88;;;21.80;83.90;;;;;;5028549;28;20192;-75
2022/06/27 02:04:37;;;;;;;7.35;3.00;;;21.80;83.90;;;;;;5033592;28;20207;-75
2022/06/27 02:07:06;;;;;;;6.32;2.97;;;21.80;83.90;;;;;;5033818;28;20191;-74
2022/06/27 02:09:35;;;;;;;4.45;2.50;;;21.80;83.90;;;;;;5040288;28;20210;-75
2022/06/27 02:14:50;;;;;;;7.18;2.88;;;21.70;83.90;;;;;;5029974;28;20195;-75
2022/06/27 02:17:18;;;;;;;5.18;2.63;;;21.70;84.00;;;;;;5024618;28;20697;-75
2022/06/27 02:19:47;;;;;;;4.13;2.60;;;21.70;84.00;;;;;;5035283;28;20218;-75
2022/06/27 02:22:16;;;;;;;4.32;2.65;;;21.70;84.10;;;;;;5024760;28;20867;-75
2022/06/27 02:24:45;;;;;;;5.18;3.05;;;21.70;84.10;;;;;;5039678;28;20206;-75
2022/06/27 02:27:13;;;;;;;4.03;2.95;;;21.60;84.10;;;;;;5028112;28;20700;-75
2022/06/27 02:29:42;;;;;;;5.30;2.70;;;21.60;84.10;;;;;;5037641;28;20207;-75
2022/06/27 02:32:12;;;;;;;6.05;2.92;;;21.60;84.30;;;;;;5033363;28;20198;-75
2022/06/27 02:34:40;;;;;;;4.93;3.00;;;21.60;84.30;;;;;;5034264;28;20192;-75
2022/06/27 02:37:10;;;;;;;6.25;3.00;;;21.60;84.30;;;;;;5030240;28;20853;-75
2022/06/27 02:39:41;;;;;;;5.50;3.05;;;21.60;84.40;;;;;;5037958;28;20194;-75
2022/06/27 02:42:11;;;;;;;3.90;2.63;;;21.60;84.40;;;;;;5043135;28;20255;-75
2022/06/27 02:44:40;;;;;;;5.55;3.03;;;21.60;84.40;;;;;;5022642;28;20200;-75
2022/06/27 02:47:09;;;;;;;4.40;2.90;;;21.60;84.40;;;;;;5030765;28;20771;-75
2022/06/27 02:49:40;;;;;;;6.50;3.28;;;21.50;84.40;;;;;;5030854;28;20861;-75
2022/06/27 02:52:19;;;;;;;4.95;3.13;;;21.60;84.60;;;;;;5038489;28;20241;-75
2022/06/27 02:54:50;;;;;;;6.45;2.60;;;21.60;84.70;;;;;;5033733;28;20203;-75
2022/06/27 02:57:26;;;;;;;5.35;3.00;;;21.50;84.70;;;;;;5039576;28;20879;-75
2022/06/27 02:59:56;;;;;;;4.55;2.58;;;21.50;84.70;;;;;;5026679;28;20216;-75
2022/06/27 03:02:27;;;;;;;6.28;3.35;;;21.60;84.90;;;;;;5030758;28;21946;-75
2022/06/27 03:04:57;;;;;;;4.93;3.13;;;21.50;84.80;;;;;;5042281;28;20193;-75
2022/06/27 03:07:26;;;;;;;5.75;2.90;;;21.50;84.80;;;;;;5042402;28;20202;-75
2022/06/27 03:09:54;;;;;;;7.40;3.78;;;21.60;84.80;;;;;;5033371;28;20203;-76
2022/06/27 03:12:23;;;;;;;6.80;2.75;;;21.60;84.70;;;;;;5034671;28;20188;-75
2022/06/27 03:14:51;;;;;;;5.53;3.08;;;21.60;84.60;;;;;;5033567;28;20197;-75
2022/06/27 03:17:19;;;;;;;4.82;3.38;;;21.60;84.70;;;;;;5019233;28;20222;-75
2022/06/27 03:19:50;;;;;;;5.40;3.03;;;21.60;84.60;;;;;;5032546;28;20234;-75
2022/06/27 03:22:20;;;;;;;7.03;2.80;;;21.60;84.60;;;;;;5041026;28;20187;-76
2022/06/27 03:24:48;;;;;;;4.53;3.03;;;21.70;84.70;;;;;;5033178;28;20613;-75
2022/06/27 03:27:16;;;;;;;8.32;3.30;;;21.70;84.70;;;;;;5033512;28;20191;-75
2022/06/27 03:29:45;;;;;;;5.10;2.95;;;21.70;84.70;;;;;;5038678;28;21967;-75
2022/06/27 03:32:13;;;;;;;5.38;3.10;;;21.70;84.80;;;;;;5025760;28;20187;-75
2022/06/27 03:34:41;;;;;;;4.60;2.65;;;21.70;84.70;;;;;;5033705;28;20279;-75
2022/06/27 03:37:10;;;;;;;5.78;2.67;;;21.70;84.70;;;;;;5037094;28;20215;-75
2022/06/27 03:39:40;;;;;;;7.95;3.05;;;21.70;84.60;;;;;;5031640;28;20191;-75
2022/06/27 03:42:08;;;;;;;7.03;3.40;;;21.70;84.60;;;;;;5027346;28;20199;-75
2022/06/27 03:44:36;;;;;;;7.85;3.10;;;21.80;84.60;;;;;;5038222;28;20188;-76
2022/06/27 03:47:05;;;;;;;8.15;3.35;;;21.80;84.40;;;;;;5023979;28;20202;-75
2022/06/27 03:52:19;;;;;;;6.28;2.95;;;21.80;84.30;;;;;;5039792;28;20202;-76
2022/06/27 03:54:48;;;;;;;6.00;3.22;;;21.90;84.30;;;;;;5020910;28;20199;-75
2022/06/27 03:57:17;;;;;;;11.38;3.10;;;21.90;84.20;;;;;;5028664;28;20214;-75
2022/06/27 03:59:45;;;;;;;5.57;2.97;;;21.90;84.10;;;;;;5040327;28;20222;-75
2022/06/27 04:02:16;;;;;;;8.73;3.03;;;21.90;84.10;;;;;;5029889;28;20559;-74
2022/06/27 04:04:44;;;;;;;6.68;3.30;;;22.00;84.10;;;;;;5031917;28;20229;-75
2022/06/27 04:07:12;;;;;;;5.45;2.90;;;22.00;84.10;;;;;;5033658;28;20560;-75
2022/06/27 04:09:41;;;;;;;10.95;3.17;;;22.00;84.00;;;;;;5025398;28;20200;-75
2022/06/27 04:12:12;;;;;;;5.43;2.83;;;22.10;84.00;;;;;;5030066;28;20196;-75
2022/06/27 04:14:40;;;;;;;9.38;2.72;;;22.20;84.00;;;;;;5033471;28;20205;-75
2022/06/27 04:17:08;;;;;;;4.25;2.72;;;22.20;83.80;;;;;;5036867;28;20951;-75
2022/06/27 04:19:37;;;;;;;8.32;3.42;;;22.30;83.80;;;;;;5032647;28;20212;-75
2022/06/27 04:22:05;;;;;;;3.83;2.42;;;22.30;83.80;;;;;;5032965;28;20214;-75
2022/06/27 04:24:34;;;;;;;10.43;3.50;;;22.40;83.80;;;;;;5032073;28;21000;-76
2022/06/27 04:27:02;;;;;;;6.47;2.28;;;22.40;83.70;;;;;;5037366;28;20669;-76
2022/06/27 04:29:32;;;;;;;3.92;2.53;;;22.50;83.70;;;;;;5034762;28;20195;-75
2022/06/27 04:32:00;;;;;;;4.95;2.88;;;22.50;83.50;;;;;;5034297;28;20773;-76
2022/06/27 04:34:29;;;;;;;7.20;2.65;;;22.60;83.50;;;;;;5035016;28;20204;-75
2022/06/27 04:36:57;;;;;;;4.80;2.88;;;22.60;83.60;;;;;;5036805;28;20187;-76
2022/06/27 04:39:25;;;;;;;7.95;2.88;;;22.70;83.60;;;;;;5052044;28;20207;-76
2022/06/27 04:41:54;;;;;;;5.38;2.72;;;22.70;83.30;;;;;;5042209;28;20206;-75
2022/06/27 04:44:22;;;;;;;4.90;2.60;;;22.70;83.20;;;;;;5047673;28;20831;-75
2022/06/27 04:46:53;;;;;;;9.45;2.95;;;22.80;83.20;;;;;;5036988;28;20190;-74
2022/06/27 04:49:21;;;;;;;8.85;3.30;;;22.80;82.90;;;;;;5032878;28;20196;-74
2022/06/27 04:51:50;;;;;;;8.52;3.13;;;22.80;82.90;;;;;;5038906;28;20195;-75
2022/06/27 04:54:20;;;;;;;6.60;2.95;;;22.80;82.90;;;;;;5043097;28;20199;-76
2022/06/27 04:56:49;;;;;;;5.32;2.90;;;22.90;83.00;;;;;;5045975;28;20618;-76
2022/06/27 04:59:18;;;;;;;6.10;3.28;;;22.90;83.00;;;;;;5042234;28;20246;-76
2022/06/27 05:01:47;;;;;;;7.47;2.50;;;23.00;83.00;;;;;;5038207;28;20189;-76
2022/06/27 05:04:17;;;;;;;8.85;2.70;;;23.00;82.90;;;;;;5043303;28;20191;-76
2022/06/27 05:06:46;;;;;;;7.55;2.80;;;23.10;82.90;;;;;;5037616;28;20198;-76
2022/06/27 05:09:16;;;;;;;4.65;2.70;;;23.10;82.70;;;;;;5028331;28;20203;-75
2022/06/27 05:11:45;;;;;;;6.80;2.67;;;23.20;82.70;;;;;;5042895;28;20183;-75
2022/06/27 05:14:14;;;;;;;5.18;2.50;;;23.30;82.70;;;;;;5036493;28;20191;-75
2022/06/27 05:16:42;;;;;;;3.60;2.55;;;23.40;82.80;;;;;;5040033;28;20192;-75
2022/06/27 05:19:12;;;;;;;4.68;2.40;;;23.40;82.70;;;;;;5038361;28;20214;-75
2022/06/27 05:21:46;;;;;;;7.75;3.08;;;23.50;82.60;;;;;;5036823;28;20191;-76
2022/06/27 05:24:15;;;;;;;4.60;2.38;;;23.60;82.40;;;;;;5039804;28;20198;-75
2022/06/27 05:26:43;;;;;;;6.47;2.40;;;23.60;82.20;;;;;;5037565;28;20231;-75
2022/06/27 05:29:12;;;;;;;3.38;1.80;;;23.70;82.00;;;;;;5044277;28;20237;-76
2022/06/27 05:31:40;;;;;;;5.43;2.28;;;23.80;81.90;;;;;;5045119;28;20197;-76
2022/06/27 05:34:09;;;;;;;5.30;2.20;;;23.90;81.80;;;;;;5053702;28;20204;-78
2022/06/27 05:36:38;;;;;;;4.15;1.98;;;24.00;81.50;;;;;;5028828;28;20195;-76
2022/06/27 05:39:08;;;;;;;6.18;2.40;;;24.10;81.50;;;;;;5033323;28;20219;-77
2022/06/27 05:41:36;;;;;;;4.47;2.05;;;24.20;81.30;;;;;;5032781;28;20205;-75
2022/06/27 05:44:05;;;;;;;6.97;2.40;;;24.20;81.00;;;;;;5044396;28;20760;-74
2022/06/27 05:46:33;;;;;;;4.32;2.47;;;24.30;80.80;;;;;;5043348;28;20195;-75
2022/06/27 05:49:03;;;;;;;4.50;2.15;;;24.40;80.80;;;;;;5042371;28;20199;-75
2022/06/27 05:51:32;;;;;;;3.65;2.20;;;24.50;80.50;;;;;;5046488;28;20544;-74
2022/06/27 05:54:01;;;;;;;3.30;2.15;;;24.50;79.80;;;;;;5046875;28;20195;-74
2022/06/27 05:56:31;;;;;;;5.28;2.10;;;24.60;79.20;;;;;;5045751;28;20208;-74
2022/06/27 05:59:01;;;;;;;6.30;2.20;;;24.60;78.90;;;;;;5042482;28;20211;-76
2022/06/27 06:01:30;;;;;;;3.92;2.10;;;24.70;78.80;;;;;;5044349;28;20195;-74
2022/06/27 06:03:59;;;;;;;4.45;2.10;;;24.80;78.20;;;;;;5041478;28;20202;-76
2022/06/27 06:06:28;;;;;;;3.45;2.17;;;24.90;78.20;;;;;;5045113;28;20205;-74
2022/06/27 06:08:57;;;;;;;3.17;2.10;;;24.90;77.80;;;;;;5044649;28;20199;-75
2022/06/27 06:11:25;;;;;;;7.03;2.20;;;25.00;77.80;;;;;;5041651;28;20202;-74
2022/06/27 06:13:55;;;;;;;4.03;2.13;;;25.10;77.70;;;;;;5039909;28;20199;-75
2022/06/27 06:16:24;;;;;;;3.67;2.10;;;25.20;77.30;;;;;;5036502;28;20210;-75
2022/06/27 06:18:55;;;;;;;4.45;1.95;;;25.30;76.90;;;;;;5045027;28;20222;-74
2022/06/27 06:21:24;;;;;;;6.32;2.28;;;25.40;77.00;;;;;;5032382;28;20230;-74
2022/06/27 06:23:53;;;;;;;3.10;1.83;;;25.50;76.80;;;;;;5036937;28;20191;-74
2022/06/27 06:26:22;;;;;;;3.60;2.00;;;25.50;76.80;;;;;;5038375;28;20466;-75
2022/06/27 06:28:53;;;;;;;3.53;1.90;;;25.60;76.30;;;;;;5042767;28;20196;-74
2022/06/27 06:31:23;;;;;;;6.28;2.00;;;25.70;76.10;;;;;;5043755;28;20194;-75
2022/06/27 06:33:53;;;;;;;7.15;2.50;;;25.80;75.60;;;;;;5041795;28;20186;-74
2022/06/27 06:36:23;;;;;;;4.07;1.77;;;25.90;75.40;;;;;;5038223;28;20202;-74
2022/06/27 06:38:52;;;;;;;4.65;1.58;;;25.90;75.10;;;;;;5036827;28;20620;-74
2022/06/27 06:41:21;;;;;;;3.28;1.65;;;26.00;74.10;;;;;;4993513;28;20200;-74
2022/06/27 06:43:49;;;;;;;10.88;2.00;;;26.10;74.50;;;;;;4921568;28;20224;-74
2022/06/27 06:46:17;;;;;;;4.28;1.83;;;26.20;74.40;;;;;;4959890;28;20198;-74
2022/06/27 06:48:47;;;;;;;5.18;1.80;;;26.30;74.50;;;;;;4964422;28;20820;-73
2022/06/27 06:51:16;;;;;;;2.38;1.40;;;26.40;74.10;;;;;;4967805;28;20236;-74
2022/06/27 06:53:46;;;;;;;2.80;1.38;;;26.50;73.10;;;;;;4962826;28;20199;-73
2022/06/27 06:56:14;;;;;;;5.38;1.60;;;26.60;73.00;;;;;;4965264;28;20206;-73
2022/06/27 06:58:42;;;;;;;3.40;1.30;;;26.70;73.20;;;;;;4955152;28;20230;-74
2022/06/27 07:01:11;;;;;;;4.68;1.73;;;26.70;72.80;;;;;;4963779;28;20212;-73
2022/06/27 07:03:39;;;;;;;5.82;2.33;;;26.80;72.40;;;;;;4969538;28;20281;-74
2022/06/27 07:06:09;;;;;;;3.08;1.58;;;26.80;70.60;;;;;;4964158;28;20280;-74
2022/06/27 07:08:39;;;;;;;5.88;1.63;;;26.90;70.30;;;;;;4964507;28;20586;-74
2022/06/27 07:11:08;;;;;;;5.43;1.60;;;26.90;70.10;;;;;;4966955;28;20858;-73
2022/06/27 07:13:37;;;;;;;4.38;1.45;;;27.00;70.50;;;;;;4962307;28;20210;-73
2022/06/27 07:16:08;;;;;;;2.65;1.40;;;27.00;70.80;;;;;;4963697;28;20280;-73
2022/06/27 07:18:37;;;;;;;8.02;1.88;;;27.20;70.90;;;;;;4968897;28;20300;-72
2022/06/27 07:21:06;;;;;;;3.78;1.55;;;27.20;70.40;;;;;;4978613;28;20240;-73
2022/06/27 07:23:36;;;;;;;2.75;1.52;;;27.30;70.30;;;;;;4979921;28;20220;-74
2022/06/27 07:26:05;;;;;;;2.42;1.48;;;27.30;69.50;;;;;;4978054;28;20207;-72
2022/06/27 07:28:34;;;;;;;3.13;1.33;;;27.40;69.70;;;;;;4980069;28;20201;-73
2022/06/27 07:31:08;;;;;;;3.90;1.60;;;27.40;69.40;;;;;;4987982;28;20213;-73
2022/06/27 07:33:38;;;;;;;4.50;1.70;;;27.50;69.20;;;;;;4986692;28;20197;-74
2022/06/27 07:36:08;;;;;;;4.28;1.60;;;27.50;69.10;;;;;;4977935;28;20608;-74
2022/06/27 07:38:38;;;;;;;3.80;1.48;;;27.60;68.80;;;;;;4979887;28;20550;-74
2022/06/27 07:41:06;;;;;;;3.28;1.52;;;27.70;69.20;;;;;;4981119;28;20197;-74
2022/06/27 07:43:35;;;;;;;5.68;1.80;;;27.80;69.00;;;;;;4981236;28;20197;-74
2022/06/27 07:46:06;;;;;;;5.28;1.70;;;27.80;68.30;;;;;;4981834;28;20570;-74
2022/06/27 07:48:34;;;;;;;3.80;1.50;;;27.80;67.00;;;;;;4973137;28;20193;-74
2022/06/27 07:51:03;;;;;;;3.92;1.75;;;27.80;66.40;;;;;;4979258;28;20189;-74
2022/06/27 07:53:32;;;;;;;2.10;1.45;;;27.90;67.20;;;;;;4976797;28;20193;-76
2022/06/27 07:56:06;;;;;;;2.40;1.33;;;27.90;66.90;;;;;;4976767;28;20835;-74
2022/06/27 07:58:38;;;;;;;2.63;1.67;;;27.90;66.60;;;;;;4983637;28;20197;-76
2022/06/27 08:01:08;;;;;;;4.25;1.63;;;27.90;65.50;;;;;;4976780;28;20197;-75
2022/06/27 08:03:40;;;;;;;2.00;1.33;;;27.90;64.90;;;;;;4980464;28;20944;-75
2022/06/27 08:06:11;;;;;;;2.83;1.45;;;27.90;64.50;;;;;;4971154;28;20227;-74
2022/06/27 08:08:41;;;;;;;2.30;1.70;;;28.00;65.00;;;;;;4979818;28;20197;-74
2022/06/27 08:11:13;;;;;;;3.97;1.60;;;28.10;65.60;;;;;;4979953;28;20201;-75
2022/06/27 08:13:45;;;;;;;2.80;1.65;;;28.10;64.80;;;;;;4984173;28;20208;-79
2022/06/27 08:16:14;;;;;;;3.80;1.30;;;28.10;63.90;;;;;;4988923;28;20219;-75
2022/06/27 08:18:44;;;;;;;2.45;1.50;;;28.20;63.20;;;;;;4987465;28;20201;-74
2022/06/27 08:21:13;;;;;;;3.22;1.55;;;28.20;63.60;;;;;;4987389;28;20235;-75
2022/06/27 08:23:41;;;;;;;2.10;1.55;;;28.20;63.60;;;;;;4987607;28;20200;-75
2022/06/27 08:26:12;;;;;;;2.03;1.25;;;28.30;63.70;;;;;;4985414;28;20200;-78
2022/06/27 08:28:43;;;;;;;3.40;1.77;;;28.30;63.00;;;;;;4986841;28;20295;-75
2022/06/27 08:31:13;;;;;;;5.15;1.55;;;28.40;62.90;;;;;;4988271;28;20200;-75
2022/06/27 08:33:43;;;;;;;2.30;1.52;;;28.40;62.70;;;;;;4985809;28;20205;-74
2022/06/27 08:36:14;;;;;;;1.50;1.13;;;28.50;62.40;;;;;;4988930;28;20205;-76
2022/06/27 08:38:46;;;;;;;3.08;1.40;;;28.50;62.50;;;;;;4988126;28;20197;-75
2022/06/27 08:41:16;;;;;;;2.97;1.35;;;28.50;61.60;;;;;;4987337;28;20213;-76
2022/06/27 08:43:46;;;;;;;1.40;1.10;;;28.60;61.00;;;;;;4985985;28;20264;-75
2022/06/27 08:46:17;;;;;;;1.48;1.17;;;28.60;60.00;;;;;;4990016;28;20197;-76
2022/06/27 08:48:47;;;;;;;2.90;1.38;;;28.60;60.70;;;;;;4985365;28;20200;-76
2022/06/27 08:51:16;;;;;;;4.10;1.42;;;28.60;60.40;;;;;;4999459;28;20235;-78
2022/06/27 08:53:45;;;;;;;1.92;1.35;;;28.70;59.80;;;;;;4983797;28;20193;-75
2022/06/27 08:56:16;;;;;;;2.05;1.33;;;28.70;59.80;;;;;;4986609;28;20189;-74
2022/06/27 08:58:46;;;;;;;2.35;1.40;;;28.70;59.70;;;;;;4988191;28;20565;-75
2022/06/27 09:01:16;;;;;;;1.67;1.30;;;28.80;59.50;;;;;;4982601;28;20252;-75
2022/06/27 09:04:01;;;;;;;2.22;1.30;;;28.80;59.90;;;;;;4986012;28;20185;-75
2022/06/27 09:06:32;;;;;;;2.33;1.50;;;28.90;60.20;;;;;;4980846;28;20221;-77
2022/06/27 09:09:08;;;;;;;1.88;1.30;;;29.00;60.00;;;;;;4987123;28;20196;-75
2022/06/27 09:11:40;;;;;;;2.42;1.30;;;28.90;58.90;;;;;;4985790;28;20193;-76
2022/06/27 09:14:32;;;;;;;2.95;1.20;;;29.00;59.40;;;;;;4987700;28;20264;-75
2022/06/27 09:17:04;;;;;;;4.75;1.58;;;29.10;59.90;;;;;;4985205;28;20204;-77
2022/06/27 09:19:46;;;;;;;4.45;1.55;;;29.10;59.60;;;;;;4977546;28;20260;-77
2022/06/27 09:22:17;;;;;;;3.75;1.40;;;29.20;59.40;;;;;;4983902;28;20208;-75
2022/06/27 09:24:59;;;;;;;4.85;1.52;;;29.20;59.00;;;;;;4980830;28;20592;-75
2022/06/27 09:27:40;;;;;;;3.58;1.83;;;29.30;58.90;;;;;;4982484;28;20225;-77
2022/06/27 09:30:29;;;;;;;3.63;1.58;;;29.30;58.90;;;;;;4982568;28;20288;-76
2022/06/27 09:33:15;;;;;;;3.30;1.70;;;29.40;59.00;;;;;;4983759;28;20205;-75
2022/06/27 09:38:41;;;;;;;3.92;1.42;;;29.50;58.50;;;;;;4986519;28;20762;-78
2022/06/27 09:41:12;;;;;;;1.95;1.70;;;29.50;58.10;;;;;;4986471;28;20224;-72
2022/06/27 09:43:48;;;;;;;2.72;1.95;;;29.50;58.10;;;;;;4993727;28;20188;-76
2022/06/27 09:46:18;;;;;;;4.13;1.70;;;29.60;58.10;;;;;;4982678;28;20577;-74
2022/06/27 09:48:47;;;;;;;2.45;1.63;;;29.60;58.10;;;;;;4978027;28;20254;-72
2022/06/27 09:51:18;;;;;;;3.58;1.70;;;29.60;57.80;;;;;;4986129;28;20651;-74
2022/06/27 09:53:48;;;;;;;5.55;1.88;;;29.60;57.60;;;;;;4985057;28;20547;-73
2022/06/27 09:56:20;;;;;;;2.00;1.60;;;29.70;57.60;;;;;;4980508;28;20647;-73
2022/06/27 09:58:51;;;;;;;2.70;1.33;;;29.70;57.70;;;;;;4985933;28;20196;-74
2022/06/27 10:01:40;;;;;;;5.88;1.60;;;29.80;57.70;;;;;;4990610;28;20211;-74
2022/06/27 10:04:10;;;;;;;3.53;1.45;;;29.90;57.10;;;;;;4984596;28;20268;-71
2022/06/27 10:06:42;;;;;;;2.67;1.40;;;29.90;56.40;;;;;;4985191;28;20193;-73
2022/06/27 10:09:15;;;;;;;2.47;1.45;;;29.90;56.30;;;;;;4984910;28;20280;-72
2022/06/27 10:11:43;;;;;;;2.40;1.40;;;29.90;56.40;;;;;;4981488;28;20201;-72
2022/06/27 10:14:16;;;;;;;3.60;1.40;;;30.00;55.70;;;;;;4991388;28;20204;-72
2022/06/27 10:16:56;;;;;;;2.17;1.35;;;30.00;55.40;;;;;;4984415;28;20650;-72
2022/06/27 10:19:25;;;;;;;4.18;1.40;;;30.10;55.40;;;;;;4991964;28;20200;-72
2022/06/27 10:21:54;;;;;;;5.72;1.67;;;30.10;56.00;;;;;;4975990;28;20224;-75
2022/06/27 10:24:36;;;;;;;2.70;1.77;;;30.20;56.10;;;;;;4987064;28;20495;-73
2022/06/27 10:27:08;;;;;;;1.95;0.95;;;30.30;55.30;;;;;;4992308;28;20199;-71
2022/06/27 10:29:44;;;;;;;2.17;1.25;;;30.30;54.90;;;;;;4984072;28;20225;-73
2022/06/27 10:32:46;;;;;;;3.00;1.95;;;30.30;54.80;;;;;;4980378;28;20204;-72
2022/06/27 10:35:16;;;;;;;2.08;1.38;;;30.50;55.20;;;;;;4948194;28;20192;-74
2022/06/27 10:37:47;;;;;;;2.58;1.42;;;30.50;55.50;;;;;;4978036;28;20568;-73
2022/06/27 10:40:44;;;;;;;2.53;1.40;;;30.60;55.10;;;;;;4980149;28;20185;-72
2022/06/27 10:43:40;;;;;;;2.85;1.30;;;30.60;55.10;;;;;;4979021;28;20311;-72
2022/06/27 10:46:53;;;;;;;2.67;1.15;;;30.60;54.90;;;;;;4980869;28;20188;-72
2022/06/27 10:49:25;;;;;;;2.55;1.38;;;30.60;54.70;;;;;;4974229;28;20200;-72
2022/06/27 10:52:12;;;;;;;6.22;1.77;;;30.60;54.30;;;;;;4985282;28;20197;-73
2022/06/27 10:54:43;;;;;;;3.67;1.17;;;30.70;54.60;;;;;;4982027;28;20587;-73
2022/06/27 10:57:13;;;;;;;4.40;1.45;;;30.70;54.40;;;;;;4984059;28;20193;-73
2022/06/27 11:00:00;;;;;;;3.70;1.30;;;30.80;53.50;;;;;;4977019;28;20205;-72
2022/06/27 11:02:31;;;;;;;1.80;1.27;;;30.90;53.90;;;;;;4984577;28;20224;-73
2022/06/27 11:05:02;;;;;;;2.00;1.35;;;30.90;53.10;;;;;;4984196;28;20609;-73
2022/06/27 11:07:30;;;;;;;1.88;1.10;;;31.00;53.50;;;;;;4977619;28;20198;-73
2022/06/27 11:09:59;;;;;;;1.83;1.08;;;31.10;53.00;;;;;;4980408;28;20193;-72
2022/06/27 11:12:33;;;;;;;2.25;1.63;;;31.10;52.70;;;;;;4983580;28;20208;-72
2022/06/27 11:15:01;;;;;;;3.20;1.70;;;31.10;52.80;;;;;;4930534;28;20656;-73
2022/06/27 11:17:35;;;;;;;3.45;1.40;;;31.20;52.80;;;;;;4984080;28;20208;-71
2022/06/27 11:20:30;;;;;;;2.33;1.25;;;31.10;52.60;;;;;;4974871;28;20222;-73
2022/06/27 11:23:08;;;;;;;4.20;1.52;;;31.10;52.60;;;;;;4958551;28;20204;-73
2022/06/27 11:25:41;;;;;;;6.78;1.40;;;31.20;52.50;;;;;;4961496;28;20186;-73
2022/06/27 11:33:52;;;;;;;2.67;1.45;;;31.40;52.80;;;;;;4959016;28;20196;-72
2022/06/27 11:36:21;;;;;;;1.40;1.17;;;31.50;53.00;;;;;;4960450;28;20654;-73
2022/06/27 11:38:50;;;;;;;3.78;1.55;;;31.60;52.80;;;;;;4965791;28;20566;-72
2022/06/27 11:41:28;;;;;;;3.80;1.13;;;31.60;52.80;;;;;;4965195;28;20208;-73
2022/06/27 11:43:58;;;;;;;3.60;1.50;;;31.70;52.80;;;;;;4964399;28;20197;-73
2022/06/27 11:46:29;;;;;;;5.05;1.10;;;31.70;51.80;;;;;;4963034;28;20731;-73
2022/06/27 11:49:01;;;;;;;2.35;1.40;;;31.80;52.10;;;;;;4952999;28;20202;-74
2022/06/27 11:51:33;;;;;;;4.68;1.00;;;31.80;52.10;;;;;;4970696;28;20216;-73
2022/06/27 11:54:05;;;;;;;3.67;1.38;;;31.70;52.10;;;;;;4969766;28;20793;-72
2022/06/27 11:56:37;;;;;;;6.10;1.15;;;31.70;52.20;;;;;;4965648;28;20208;-72
2022/06/27 11:59:07;;;;;;;4.07;1.30;;;31.80;52.20;;;;;;4961427;28;20201;-73
2022/06/27 12:01:50;;;;;;;2.10;1.02;;;31.90;52.40;;;;;;4964766;28;20229;-73
2022/06/27 12:04:21;;;;;;;1.80;1.23;;;32.00;52.20;;;;;;4961350;28;20213;-73
2022/06/27 12:06:56;;;;;;;2.35;1.20;;;31.90;52.10;;;;;;4959935;28;20928;-72
2022/06/27 12:09:27;;;;;;;1.63;1.10;;;31.80;51.80;;;;;;4961362;28;20193;-72
2022/06/27 12:11:58;;;;;;;2.97;1.40;;;31.70;51.20;;;;;;4959959;28;20204;-73
2022/06/27 12:14:27;;;;;;;2.42;1.30;;;31.60;51.50;;;;;;4960661;28;20197;-73
2022/06/27 12:16:58;;;;;;;2.15;1.30;;;31.50;51.40;;;;;;4958585;28;20194;-73
2022/06/27 12:19:28;;;;;;;2.85;1.10;;;31.50;51.70;;;;;;4962014;28;20621;-72
2022/06/27 12:21:58;;;;;;;3.15;1.13;;;31.40;51.70;;;;;;4959460;28;20206;-77
2022/06/27 12:24:45;;;;;;;3.10;1.05;;;31.50;52.00;;;;;;4962861;28;20232;-72
2022/06/27 12:27:14;;;;;;;1.73;1.00;;;31.60;52.20;;;;;;4959845;28;20205;-72
2022/06/27 12:29:42;;;;;;;2.63;1.20;;;31.70;52.40;;;;;;4955870;28;20202;-73
2022/06/27 12:32:13;;;;;;;1.90;1.20;;;31.80;52.30;;;;;;4960362;28;20284;-73
2022/06/27 12:34:44;;;;;;;2.60;1.55;;;31.80;52.00;;;;;;4957302;28;20276;-73
2022/06/27 12:37:14;;;;;;;5.65;1.50;;;31.80;51.80;;;;;;4956318;28;20666;-72
2022/06/27 12:39:42;;;;;;;2.40;1.27;;;31.80;51.80;;;;;;4953770;28;20252;-74
2022/06/27 12:42:11;;;;;;;1.90;1.30;;;31.90;52.00;;;;;;4958431;28;20222;-73
2022/06/27 12:44:39;;;;;;;3.17;1.70;;;32.20;52.20;;;;;;4961282;28;20202;-73
2022/06/27 12:47:07;;;;;;;2.85;1.38;;;32.40;52.10;;;;;;4962432;28;20198;-75
2022/06/27 12:49:36;;;;;;;1.45;1.13;;;32.60;51.60;;;;;;4962299;28;20868;-73
2022/06/27 12:52:08;;;;;;;2.42;1.20;;;32.80;51.20;;;;;;4961517;28;20956;-74
2022/06/27 12:54:39;;;;;;;1.58;1.10;;;33.00;51.50;;;;;;4964209;28;20236;-74
2022/06/27 12:57:08;;;;;;;3.72;1.10;;;33.20;51.20;;;;;;4966578;28;20228;-72
2022/06/27 12:59:36;;;;;;;2.72;1.35;;;33.30;51.30;;;;;;4962362;28;20201;-74
2022/06/27 13:02:05;;;;;;;3.77;1.50;;;33.30;50.80;;;;;;4957137;28;20451;-75
2022/06/27 13:04:33;;;;;;;1.92;1.38;;;33.40;49.70;;;;;;4963519;28;20194;-74
2022/06/27 13:07:02;;;;;;;2.22;1.23;;;33.30;49.40;;;;;;4966470;28;20201;-73
2022/06/27 13:09:30;;;;;;;5.63;1.42;;;33.30;49.90;;;;;;4967756;28;20193;-74
2022/06/27 13:12:00;;;;;;;3.80;1.30;;;33.40;49.60;;;;;;4967636;28;20200;-73
2022/06/27 13:14:28;;;;;;;5.00;1.20;;;33.50;49.80;;;;;;4970076;28;20306;-75
2022/06/27 13:16:57;;;;;;;3.78;1.25;;;33.70;49.60;;;;;;4969157;28;20660;-75